createdAt,value
2022-09-03T00:01:59.162Z,19.70
2022-09-03T00:04:37.471Z,19.70
2022-09-03T00:07:17.228Z,19.60
2022-09-03T00:09:51.034Z,19.50
2022-09-03T00:12:29.400Z,19.60
2022-09-03T00:15:06.938Z,19.50
2022-09-03T00:17:59.887Z,19.50
2022-09-03T00:20:50.892Z,19.50
2022-09-03T00:23:31.026Z,19.30
2022-09-03T00:26:25.786Z,19.30
2022-09-03T00:29:06.745Z,19.30
2022-09-03T00:32:05.245Z,19.20
2022-09-03T00:34:40.733Z,19.20
2022-09-03T00:37:14.538Z,19.10
2022-09-03T00:39:43.982Z,19.20
2022-09-03T00:42:27.677Z,19.10
2022-09-03T00:45:31.113Z,19.10
2022-09-03T00:48:28.729Z,19.10
2022-09-03T00:51:29.225Z,19.10
2022-09-03T00:54:30.419Z,19.10
2022-09-03T00:57:25.573Z,19.10
2022-09-03T01:00:14.700Z,19.00
2022-09-03T01:03:33.728Z,19.00
2022-09-03T01:06:31.599Z,19.00
2022-09-03T01:09:19.826Z,19.00
2022-09-03T01:13:04.492Z,19.00
2022-09-03T01:16:07.778Z,19.00
2022-09-03T01:18:51.529Z,19.00
2022-09-03T01:21:29.045Z,19.00
2022-09-03T01:25:00.533Z,19.00
2022-09-03T01:28:25.049Z,18.90
2022-09-03T01:31:21.129Z,18.80
2022-09-03T01:33:58.404Z,18.80
2022-09-03T01:36:44.197Z,18.80
2022-09-03T01:39:54.053Z,18.90
2022-09-03T01:43:10.571Z,19.00
2022-09-03T01:45:53.678Z,19.00
2022-09-03T01:49:02.638Z,19.00
2022-09-03T01:51:32.418Z,19.00
2022-09-03T01:54:36.430Z,19.00
2022-09-03T01:57:37.082Z,18.90
2022-09-03T02:00:20.782Z,18.90
2022-09-03T02:02:52.888Z,18.90
2022-09-03T02:05:32.176Z,18.90
2022-09-03T02:08:07.509Z,18.90
2022-09-03T02:10:56.417Z,18.80
2022-09-03T02:13:38.046Z,18.70
2022-09-03T02:16:14.413Z,18.70
2022-09-03T02:18:47.527Z,18.60
2022-09-03T02:21:20.079Z,18.60
2022-09-03T02:23:48.428Z,18.60
2022-09-03T02:26:24.148Z,18.60
2022-09-03T02:28:53.220Z,18.60
2022-09-03T02:31:20.501Z,18.60
2022-09-03T02:33:50.061Z,18.50
2022-09-03T02:36:34.333Z,18.50
2022-09-03T02:39:01.092Z,18.40
2022-09-03T02:41:28.144Z,18.50
2022-09-03T02:44:12.014Z,18.40
2022-09-03T02:46:54.080Z,18.40
2022-09-03T02:49:20.881Z,18.30
2022-09-03T02:51:47.743Z,18.40
2022-09-03T02:54:18.933Z,18.30
2022-09-03T02:56:49.648Z,18.30
2022-09-03T02:59:19.725Z,18.30
2022-09-03T03:01:46.792Z,18.20
2022-09-03T03:04:14.423Z,18.20
2022-09-03T03:06:43.788Z,18.30
2022-09-03T03:09:14.508Z,18.30
2022-09-03T03:11:41.277Z,18.20
2022-09-03T03:14:08.084Z,18.20
2022-09-03T03:16:35.450Z,18.10
2022-09-03T03:19:02.463Z,18.30
2022-09-03T03:21:29.244Z,18.30
2022-09-03T03:23:56.002Z,18.30
2022-09-03T03:26:24.140Z,18.20
2022-09-03T03:28:57.204Z,18.20
2022-09-03T03:31:24.514Z,18.20
2022-09-03T03:33:57.816Z,18.10
2022-09-03T03:36:28.761Z,18.10
2022-09-03T03:38:58.339Z,18.00
2022-09-03T03:41:31.243Z,18.10
2022-09-03T03:44:02.004Z,18.10
2022-09-03T03:46:39.259Z,18.10
2022-09-03T03:49:07.828Z,18.00
2022-09-03T03:51:36.392Z,17.90
2022-09-03T03:54:05.480Z,18.00
2022-09-03T03:56:34.401Z,17.90
2022-09-03T03:59:01.273Z,17.90
2022-09-03T04:01:28.975Z,17.90
2022-09-03T04:03:57.610Z,17.90
2022-09-03T04:06:24.765Z,17.80
2022-09-03T04:08:51.753Z,17.90
2022-09-03T04:11:22.307Z,17.80
2022-09-03T04:13:51.518Z,17.80
2022-09-03T04:16:22.332Z,17.70
2022-09-03T04:18:49.713Z,17.80
2022-09-03T04:21:21.251Z,17.80
2022-09-03T04:23:50.230Z,17.80
2022-09-03T04:26:25.360Z,17.70
2022-09-03T04:28:52.408Z,17.70
2022-09-03T04:31:20.957Z,17.70
2022-09-03T04:33:48.051Z,17.60
2022-09-03T04:36:24.512Z,17.60
2022-09-03T04:38:55.484Z,17.60
2022-09-03T04:41:31.970Z,17.60
2022-09-03T04:44:00.100Z,17.70
2022-09-03T04:46:34.246Z,17.70
2022-09-03T04:49:02.054Z,17.80
2022-09-03T04:51:30.104Z,17.80
2022-09-03T04:54:01.112Z,17.70
2022-09-03T04:56:35.182Z,17.60
2022-09-03T04:59:08.923Z,17.60
2022-09-03T05:01:38.940Z,17.60
2022-09-03T05:04:08.067Z,17.60
2022-09-03T05:06:37.139Z,17.60
2022-09-03T05:09:05.529Z,17.60
2022-09-03T05:11:34.975Z,17.50
2022-09-03T05:14:02.104Z,17.50
2022-09-03T05:16:30.808Z,17.40
2022-09-03T05:19:00.768Z,17.40
2022-09-03T05:21:29.839Z,17.30
2022-09-03T05:23:57.624Z,17.30
2022-09-03T05:26:28.004Z,17.30
2022-09-03T05:28:59.656Z,17.20
2022-09-03T05:31:32.479Z,17.30
2022-09-03T05:34:03.459Z,17.40
2022-09-03T05:36:37.019Z,17.50
2022-09-03T05:39:06.434Z,17.50
2022-09-03T05:41:34.017Z,17.60
2022-09-03T05:44:01.691Z,17.60
2022-09-03T05:46:32.582Z,17.60
2022-09-03T05:49:06.183Z,17.60
2022-09-03T05:51:36.225Z,17.60
2022-09-03T05:54:03.801Z,17.60
2022-09-03T05:56:35.847Z,17.60
2022-09-03T05:59:08.021Z,17.60
2022-09-03T06:01:41.167Z,17.60
2022-09-03T06:04:16.961Z,17.50
2022-09-03T06:06:46.570Z,17.40
2022-09-03T06:09:23.151Z,17.40
2022-09-03T06:11:50.759Z,17.40
2022-09-03T06:14:19.715Z,17.40
2022-09-03T06:16:50.369Z,17.40
2022-09-03T06:19:17.546Z,17.30
2022-09-03T06:21:46.663Z,17.30
2022-09-03T06:24:28.289Z,17.40
2022-09-03T06:26:58.368Z,17.40
2022-09-03T06:29:25.252Z,17.40
2022-09-03T06:31:52.234Z,17.40
2022-09-03T06:34:19.277Z,17.40
2022-09-03T06:36:46.219Z,17.50
2022-09-03T06:39:13.061Z,17.50
2022-09-03T06:41:40.020Z,17.50
2022-09-03T06:44:11.742Z,17.40
2022-09-03T06:46:42.657Z,17.60
2022-09-03T06:49:12.826Z,17.60
2022-09-03T06:51:40.824Z,17.60
2022-09-03T06:54:11.090Z,17.70
2022-09-03T06:56:41.735Z,17.70
2022-09-03T06:59:15.119Z,17.80
2022-09-03T07:01:46.204Z,17.80
2022-09-03T07:04:16.693Z,17.80
2022-09-03T07:06:46.418Z,17.90
2022-09-03T07:09:15.339Z,17.90
2022-09-03T07:11:47.850Z,17.90
2022-09-03T07:14:18.038Z,17.90
2022-09-03T07:16:46.091Z,17.90
2022-09-03T07:19:14.022Z,18.00
2022-09-03T07:21:49.122Z,18.00
2022-09-03T07:24:20.323Z,18.00
2022-09-03T07:26:49.345Z,18.10
2022-09-03T07:29:21.064Z,18.20
2022-09-03T07:31:53.609Z,18.20
2022-09-03T07:34:25.237Z,18.30
2022-09-03T07:36:53.859Z,18.30
2022-09-03T07:39:20.894Z,18.30
2022-09-03T07:41:48.252Z,18.40
2022-09-03T07:44:19.314Z,18.40
2022-09-03T07:46:47.670Z,18.60
2022-09-03T07:49:15.089Z,18.60
2022-09-03T07:51:42.005Z,18.70
2022-09-03T07:54:11.747Z,18.70
2022-09-03T07:56:40.430Z,18.80
2022-09-03T07:59:09.162Z,18.90
2022-09-03T08:01:37.081Z,18.90
2022-09-03T08:04:09.770Z,19.00
2022-09-03T08:06:38.665Z,19.00
2022-09-03T08:09:10.007Z,19.10
2022-09-03T08:11:39.317Z,19.50
2022-09-03T08:14:12.298Z,19.90
2022-09-03T08:16:42.974Z,20.20
2022-09-03T08:19:14.201Z,20.60
2022-09-03T08:21:42.050Z,20.80
2022-09-03T08:24:10.925Z,21.20
2022-09-03T08:26:45.259Z,21.30
2022-09-03T08:29:13.365Z,21.70
2022-09-03T08:31:40.360Z,21.90
2022-09-03T08:34:08.058Z,22.30
2022-09-03T08:36:38.443Z,22.40
2022-09-03T08:39:09.756Z,22.60
2022-09-03T08:42:21.237Z,23.00
2022-09-03T08:45:02.983Z,23.10
2022-09-03T08:47:35.304Z,23.40
2022-09-03T08:50:05.169Z,23.70
2022-09-03T08:52:49.901Z,23.80
2022-09-03T08:55:27.141Z,23.90
2022-09-03T08:58:06.447Z,24.00
2022-09-03T09:01:18.813Z,24.10
2022-09-03T09:04:22.038Z,24.10
2022-09-03T09:06:58.957Z,24.20
2022-09-03T09:09:41.012Z,24.30
2022-09-03T09:12:46.338Z,24.40
2022-09-03T09:15:26.155Z,24.60
2022-09-03T09:18:23.465Z,24.70
2022-09-03T09:21:21.370Z,24.70
2022-09-03T09:23:51.561Z,24.80
2022-09-03T09:26:29.435Z,24.90
2022-09-03T09:29:09.465Z,24.90
2022-09-03T09:31:42.707Z,25.00
2022-09-03T09:34:09.743Z,25.10
2022-09-03T09:36:53.673Z,25.40
2022-09-03T09:39:21.400Z,25.40
2022-09-03T09:42:08.668Z,25.30
2022-09-03T09:44:42.253Z,25.50
2022-09-03T09:47:29.728Z,25.60
2022-09-03T09:50:00.329Z,25.70
2022-09-03T09:52:31.406Z,25.90
2022-09-03T09:55:28.780Z,25.90
2022-09-03T09:58:14.216Z,26.00
2022-09-03T10:00:42.711Z,25.90
2022-09-03T10:03:13.694Z,25.90
2022-09-03T10:05:41.709Z,26.20
2022-09-03T10:08:22.178Z,26.20
2022-09-03T10:10:50.851Z,26.30
2022-09-03T10:13:48.460Z,26.20
2022-09-03T10:16:29.388Z,26.20
2022-09-03T10:19:30.661Z,26.30
2022-09-03T10:22:20.642Z,26.50
2022-09-03T10:24:59.183Z,26.70
2022-09-03T10:27:26.579Z,26.80
2022-09-03T10:29:53.560Z,26.80
2022-09-03T10:33:15.727Z,26.90
2022-09-03T10:36:23.796Z,26.70
2022-09-03T10:39:43.049Z,26.80
2022-09-03T10:42:46.657Z,26.90
2022-09-03T10:45:38.673Z,26.90
2022-09-03T10:48:20.494Z,26.90
2022-09-03T10:51:13.342Z,26.90
2022-09-03T10:54:15.092Z,26.90
2022-09-03T10:57:23.002Z,27.10
2022-09-03T11:00:09.700Z,27.00
2022-09-03T11:03:06.261Z,27.00
2022-09-03T11:05:51.638Z,27.10
2022-09-03T11:08:36.433Z,27.30
2022-09-03T11:11:46.416Z,27.20
2022-09-03T11:14:26.178Z,27.20
2022-09-03T11:17:03.038Z,27.30
2022-09-03T11:20:20.269Z,27.40
2022-09-03T11:22:53.228Z,27.50
2022-09-03T11:25:28.511Z,27.50
2022-09-03T11:28:51.285Z,27.60
2022-09-03T11:31:47.981Z,27.50
2022-09-03T11:34:36.676Z,27.50
2022-09-03T11:37:18.827Z,27.50
2022-09-03T11:39:54.613Z,27.60
2022-09-03T11:42:37.700Z,27.60
2022-09-03T11:45:34.634Z,27.60
2022-09-03T11:48:01.588Z,27.60
2022-09-03T11:50:34.028Z,27.80
2022-09-03T11:53:25.232Z,27.90
2022-09-03T11:56:04.262Z,28.00
2022-09-03T11:58:42.844Z,28.00
2022-09-03T12:01:16.257Z,28.00
2022-09-03T12:03:58.157Z,28.00
2022-09-03T12:06:49.299Z,28.00
2022-09-03T12:09:47.634Z,28.00
2022-09-03T12:12:56.119Z,28.10
2022-09-03T12:15:50.492Z,28.20
2022-09-03T12:18:32.043Z,28.10
2022-09-03T12:21:00.111Z,28.10
2022-09-03T12:23:49.022Z,28.10
2022-09-03T12:26:23.749Z,28.20
2022-09-03T12:28:57.317Z,28.30
2022-09-03T12:31:30.908Z,28.30
2022-09-03T12:34:10.584Z,28.40
2022-09-03T12:36:43.982Z,28.40
2022-09-03T12:40:05.145Z,28.50
2022-09-03T12:42:24.485Z,28.50
2022-09-03T12:44:51.374Z,28.50
2022-09-03T12:47:38.066Z,28.60
2022-09-03T12:50:17.060Z,28.60
2022-09-03T12:52:49.434Z,28.60
2022-09-03T12:55:49.164Z,28.70
2022-09-03T12:58:38.178Z,28.80
2022-09-03T13:01:31.385Z,28.70
2022-09-03T13:04:17.043Z,28.60
2022-09-03T13:07:08.043Z,28.60
2022-09-03T13:09:39.258Z,28.60
2022-09-03T13:12:07.249Z,28.70
2022-09-03T13:14:52.374Z,28.70
2022-09-03T13:18:07.900Z,28.80
2022-09-03T13:21:06.920Z,28.90
2022-09-03T13:24:17.634Z,28.80
2022-09-03T13:26:51.450Z,28.70
2022-09-03T13:29:29.784Z,28.70
2022-09-03T13:32:22.652Z,28.60
2022-09-03T13:35:06.036Z,28.60
2022-09-03T13:38:09.176Z,28.80
2022-09-03T13:40:48.480Z,28.60
2022-09-03T13:43:43.281Z,28.60
2022-09-03T13:46:45.411Z,28.80
2022-09-03T13:50:23.697Z,28.90
2022-09-03T13:53:04.789Z,28.80
2022-09-03T13:55:31.437Z,28.80
2022-09-03T13:58:27.661Z,28.90
2022-09-03T14:01:10.142Z,29.00
2022-09-03T14:03:59.125Z,29.00
2022-09-03T14:06:42.360Z,29.10
2022-09-03T14:09:54.328Z,29.00
2022-09-03T14:12:46.624Z,28.90
2022-09-03T14:15:29.616Z,29.00
2022-09-03T14:18:41.700Z,29.10
2022-09-03T14:21:51.092Z,29.20
2022-09-03T14:24:47.296Z,29.20
2022-09-03T14:27:31.518Z,29.30
2022-09-03T14:30:06.505Z,29.10
2022-09-03T14:32:54.932Z,29.20
2022-09-03T14:36:07.034Z,29.30
2022-09-03T14:39:12.460Z,29.20
2022-09-03T14:42:06.425Z,29.50
2022-09-03T14:45:15.438Z,29.60
2022-09-03T14:48:25.551Z,29.60
2022-09-03T14:51:28.059Z,29.70
2022-09-03T14:54:19.279Z,29.60
2022-09-03T14:57:19.791Z,29.70
2022-09-03T15:00:20.997Z,29.70
2022-09-03T15:03:26.927Z,29.80
2022-09-03T15:06:32.549Z,29.80
2022-09-03T15:09:40.864Z,30.00
2022-09-03T15:12:14.178Z,29.90
2022-09-03T15:14:54.189Z,29.90
2022-09-03T15:17:51.122Z,29.90
2022-09-03T15:20:24.589Z,30.00
2022-09-03T15:23:20.051Z,29.90
2022-09-03T15:26:35.021Z,29.90
2022-09-03T15:29:15.479Z,30.00
2022-09-03T15:32:13.064Z,29.90
2022-09-03T15:35:13.879Z,29.90
2022-09-03T15:38:02.529Z,29.90
2022-09-03T15:40:45.437Z,29.90
2022-09-03T15:43:33.826Z,29.90
2022-09-03T15:46:13.571Z,29.90
2022-09-03T15:49:03.359Z,30.00
2022-09-03T15:51:43.306Z,29.90
2022-09-03T15:54:25.228Z,29.80
2022-09-03T15:57:13.531Z,29.90
2022-09-03T15:59:59.255Z,30.10
2022-09-03T16:02:45.868Z,30.10
2022-09-03T16:05:39.305Z,30.20
2022-09-03T16:08:56.331Z,30.10
2022-09-03T16:11:40.412Z,30.00
2022-09-03T16:14:07.077Z,30.20
2022-09-03T16:16:59.263Z,30.10
2022-09-03T16:19:47.493Z,30.10
2022-09-03T16:22:38.024Z,30.20
2022-09-03T16:25:16.564Z,30.20
2022-09-03T16:28:18.336Z,30.00
2022-09-03T16:30:52.979Z,30.00
2022-09-03T16:33:45.272Z,29.90
2022-09-03T16:36:44.397Z,29.80
2022-09-03T16:39:46.905Z,29.80
2022-09-03T16:42:43.371Z,29.80
2022-09-03T16:45:12.976Z,29.70
2022-09-03T16:48:20.424Z,29.60
2022-09-03T16:51:07.672Z,29.60
2022-09-03T16:54:12.887Z,29.60
2022-09-03T16:57:07.096Z,29.40
2022-09-03T17:00:03.145Z,29.20
2022-09-03T17:03:26.337Z,29.10
2022-09-03T17:06:38.861Z,28.90
2022-09-03T17:09:36.077Z,28.90
2022-09-03T17:12:53.129Z,28.80
2022-09-03T17:15:44.947Z,28.80
2022-09-03T17:19:13.515Z,28.80
2022-09-03T17:22:22.605Z,28.70
2022-09-03T17:25:09.277Z,28.60
2022-09-03T17:27:49.310Z,28.40
2022-09-03T17:30:18.717Z,28.50
2022-09-03T17:33:29.805Z,28.30
2022-09-03T17:36:14.748Z,28.30
2022-09-03T17:39:06.726Z,28.30
2022-09-03T17:42:06.388Z,28.10
2022-09-03T17:45:29.199Z,28.10
2022-09-03T17:48:11.388Z,27.90
2022-09-03T17:50:59.411Z,28.00
2022-09-03T17:53:40.329Z,27.90
2022-09-03T17:56:35.047Z,27.80
2022-09-03T17:59:51.888Z,27.60
2022-09-03T18:03:01.829Z,27.60
2022-09-03T18:05:41.649Z,27.50
2022-09-03T18:08:20.061Z,27.50
2022-09-03T18:11:10.236Z,27.40
2022-09-03T18:14:11.231Z,27.30
2022-09-03T18:16:49.180Z,27.20
2022-09-03T18:19:30.562Z,27.00
2022-09-03T18:22:22.676Z,26.80
2022-09-03T18:25:16.546Z,26.70
2022-09-03T18:28:28.835Z,26.50
2022-09-03T18:31:14.235Z,26.40
2022-09-03T18:34:00.133Z,26.40
2022-09-03T18:36:45.912Z,26.40
2022-09-03T18:39:46.402Z,26.40
2022-09-03T18:43:01.340Z,26.50
2022-09-03T18:49:47.678Z,26.10
2022-09-03T18:53:39.035Z,25.90
2022-09-03T18:57:07.623Z,25.70
2022-09-03T19:00:20.359Z,25.60
2022-09-03T19:03:40.411Z,25.60
2022-09-03T19:07:03.506Z,25.50
2022-09-03T19:10:25.734Z,25.40
2022-09-03T19:13:57.069Z,25.30
2022-09-03T19:17:22.459Z,25.30
2022-09-03T19:20:55.554Z,25.30
2022-09-03T19:23:40.964Z,25.10
2022-09-03T19:27:51.689Z,25.00
2022-09-03T19:31:16.085Z,25.00
2022-09-03T19:34:26.945Z,24.90
2022-09-03T19:37:34.410Z,24.70
2022-09-03T19:41:00.531Z,24.60
2022-09-03T19:44:04.004Z,24.50
2022-09-03T19:47:22.281Z,24.40
2022-09-03T19:50:47.886Z,24.40
2022-09-03T19:53:38.001Z,24.50
2022-09-03T19:56:41.054Z,24.50
2022-09-03T19:59:41.528Z,24.30
2022-09-03T20:02:28.613Z,24.30
2022-09-03T20:05:20.028Z,24.10
2022-09-03T20:08:14.119Z,24.00
2022-09-03T20:10:44.257Z,23.80
2022-09-03T20:13:17.689Z,23.80
2022-09-03T20:16:09.405Z,23.80
2022-09-03T20:18:56.529Z,23.60
2022-09-03T20:21:53.655Z,23.60
2022-09-03T20:24:58.475Z,23.50
2022-09-03T20:28:13.397Z,23.40
2022-09-03T20:31:11.958Z,23.30
2022-09-03T20:34:33.876Z,23.50
2022-09-03T20:37:06.300Z,23.50
2022-09-03T20:39:54.022Z,23.50
2022-09-03T20:42:59.581Z,23.40
2022-09-03T20:45:50.007Z,23.30
2022-09-03T20:49:13.445Z,23.20
2022-09-03T20:51:53.128Z,23.20
2022-09-03T20:55:11.605Z,23.20
2022-09-03T20:57:55.976Z,23.10
2022-09-03T21:00:23.390Z,23.00
2022-09-03T21:03:53.273Z,23.00
2022-09-03T21:06:20.307Z,22.90
2022-09-03T21:09:03.120Z,22.70
2022-09-03T21:11:40.653Z,22.50
2022-09-03T21:14:14.499Z,22.60
2022-09-03T21:17:13.632Z,22.60
2022-09-03T21:20:18.166Z,22.70
2022-09-03T21:23:22.506Z,22.80
2022-09-03T21:25:52.910Z,22.90
2022-09-03T21:28:38.938Z,22.80
2022-09-03T21:31:18.054Z,22.70
2022-09-03T21:33:51.785Z,22.70
2022-09-03T21:36:31.666Z,22.70
2022-09-03T21:39:20.627Z,22.60
2022-09-03T21:42:05.385Z,22.60
2022-09-03T21:44:46.776Z,22.60
2022-09-03T21:47:20.324Z,22.60
2022-09-03T21:49:56.481Z,22.50
2022-09-03T21:52:44.564Z,22.50
2022-09-03T21:55:54.379Z,22.40
2022-09-03T21:58:37.753Z,22.30
2022-09-03T22:01:19.097Z,22.20
2022-09-03T22:03:45.894Z,22.00
2022-09-03T22:06:25.862Z,21.90
2022-09-03T22:09:31.885Z,21.80
2022-09-03T22:12:32.558Z,21.70
2022-09-03T22:15:01.228Z,21.50
2022-09-03T22:17:30.794Z,21.70
2022-09-03T22:19:57.684Z,21.60
2022-09-03T22:22:44.009Z,21.70
2022-09-03T22:25:38.205Z,21.70
2022-09-03T22:28:45.352Z,21.70
2022-09-03T22:31:35.740Z,21.70
2022-09-03T22:34:37.769Z,21.50
2022-09-03T22:37:16.697Z,21.20
2022-09-03T22:39:47.895Z,21.20
2022-09-03T22:42:35.231Z,21.10
2022-09-03T22:45:29.703Z,21.00
2022-09-03T22:48:36.630Z,21.10
2022-09-03T22:51:05.164Z,21.10
2022-09-03T22:54:13.789Z,21.20
2022-09-03T22:56:43.918Z,21.30
2022-09-03T22:59:42.839Z,21.30
2022-09-03T23:02:23.835Z,21.30
2022-09-03T23:05:08.346Z,21.20
2022-09-03T23:08:03.115Z,20.90
2022-09-03T23:10:46.441Z,20.90
2022-09-03T23:13:26.380Z,20.90
2022-09-03T23:16:07.468Z,20.80
2022-09-03T23:18:36.673Z,20.70
2022-09-03T23:21:29.177Z,20.80
2022-09-03T23:24:07.776Z,20.70
2022-09-03T23:26:53.583Z,20.70
2022-09-03T23:29:46.923Z,20.60
2022-09-03T23:32:14.837Z,20.60
2022-09-03T23:34:41.605Z,20.60
2022-09-03T23:37:38.174Z,20.80
2022-09-03T23:40:13.017Z,20.80
2022-09-03T23:43:32.075Z,20.60
2022-09-03T23:46:32.697Z,20.70
2022-09-03T23:49:33.217Z,20.60
2022-09-03T23:52:37.246Z,20.50
2022-09-03T23:55:36.291Z,20.50
2022-09-03T23:58:10.610Z,20.50
